sensor_id;sensor_type;location;lat;lon;timestamp;temperature;humidity
57026;DHT22;43961;52.940;6.834;2023-08-06T07:15:51;14.90;99.90
57026;DHT22;43961;52.940;6.834;2023-08-06T07:18:17;14.80;99.90
57026;DHT22;43961;52.940;6.834;2023-08-06T07:20:48;15.50;99.90
57026;DHT22;43961;52.940;6.834;2023-08-06T07:23:14;15.30;99.90
57026;DHT22;43961;52.940;6.834;2023-08-06T07:25:40;15.50;99.90
57026;DHT22;43961;52.940;6.834;2023-08-06T07:28:05;15.40;99.90
57026;DHT22;43961;52.940;6.834;2023-08-06T07:30:31;16.90;99.90
57026;DHT22;43961;52.940;6.834;2023-08-06T07:32:57;15.30;99.90
57026;DHT22;43961;52.940;6.834;2023-08-06T07:35:23;15.30;99.90
57026;DHT22;43961;52.940;6.834;2023-08-06T07:37:48;15.50;99.90
57026;DHT22;43961;52.940;6.834;2023-08-06T07:40:14;15.40;99.90
57026;DHT22;43961;52.940;6.834;2023-08-06T07:42:40;15.50;99.90
57026;DHT22;43961;52.940;6.834;2023-08-06T07:45:07;15.90;99.90
57026;DHT22;43961;52.940;6.834;2023-08-06T07:47:33;15.80;99.90
57026;DHT22;43961;52.940;6.834;2023-08-06T07:49:58;15.60;99.90
57026;DHT22;43961;52.940;6.834;2023-08-06T07:54:51;15.60;99.90
57026;DHT22;43961;52.940;6.834;2023-08-06T07:57:16;16.10;99.90
57026;DHT22;43961;52.940;6.834;2023-08-06T07:59:42;16.00;99.90
57026;DHT22;43961;52.940;6.834;2023-08-06T08:02:08;16.80;99.90
57026;DHT22;43961;52.940;6.834;2023-08-06T08:07:00;15.90;99.90
57026;DHT22;43961;52.940;6.834;2023-08-06T08:09:25;16.50;99.90
57026;DHT22;43961;52.940;6.834;2023-08-06T08:14:18;16.70;99.90
57026;DHT22;43961;52.940;6.834;2023-08-06T08:16:43;16.60;99.90
57026;DHT22;43961;52.940;6.834;2023-08-06T08:19:09;16.80;99.90
57026;DHT22;43961;52.940;6.834;2023-08-06T08:21:35;16.90;99.90
57026;DHT22;43961;52.940;6.834;2023-08-06T08:24:01;15.90;99.90
57026;DHT22;43961;52.940;6.834;2023-08-06T08:28:56;17.20;99.90
57026;DHT22;43961;52.940;6.834;2023-08-06T08:31:22;16.90;99.90
57026;DHT22;43961;52.940;6.834;2023-08-06T08:33:48;17.20;99.90
57026;DHT22;43961;52.940;6.834;2023-08-06T08:38:39;17.30;99.90
57026;DHT22;43961;52.940;6.834;2023-08-06T08:41:06;17.30;99.90
57026;DHT22;43961;52.940;6.834;2023-08-06T08:43:32;17.80;99.90
57026;DHT22;43961;52.940;6.834;2023-08-06T08:45:58;17.30;99.90
57026;DHT22;43961;52.940;6.834;2023-08-06T08:48:25;17.40;99.90
57026;DHT22;43961;52.940;6.834;2023-08-06T08:53:18;17.70;99.90
57026;DHT22;43961;52.940;6.834;2023-08-06T08:55:47;18.30;99.90
57026;DHT22;43961;52.940;6.834;2023-08-06T08:58:14;18.30;99.90
57026;DHT22;43961;52.940;6.834;2023-08-06T09:00:45;18.40;99.90
57026;DHT22;43961;52.940;6.834;2023-08-06T09:08:05;18.50;99.90
57026;DHT22;43961;52.940;6.834;2023-08-06T09:10:31;18.50;99.90
57026;DHT22;43961;52.940;6.834;2023-08-06T09:12:58;19.00;99.90
57026;DHT22;43961;52.940;6.834;2023-08-06T09:25:11;19.00;99.90
57026;DHT22;43961;52.940;6.834;2023-08-06T09:30:06;19.30;99.90
57026;DHT22;43961;52.940;6.834;2023-08-06T09:32:46;19.30;99.90
57026;DHT22;43961;52.940;6.834;2023-08-06T09:35:19;19.50;99.90
57026;DHT22;43961;52.940;6.834;2023-08-06T09:37:45;19.60;99.90
57026;DHT22;43961;52.940;6.834;2023-08-06T09:40:30;19.20;99.90
57026;DHT22;43961;52.940;6.834;2023-08-06T09:42:57;19.90;99.90
57026;DHT22;43961;52.940;6.834;2023-08-06T09:45:28;20.00;99.90
57026;DHT22;43961;52.940;6.834;2023-08-06T09:47:59;20.20;99.90
57026;DHT22;43961;52.940;6.834;2023-08-06T09:50:30;20.20;99.90
57026;DHT22;43961;52.940;6.834;2023-08-06T09:52:57;21.00;99.90
57026;DHT22;43961;52.940;6.834;2023-08-06T10:00:18;21.20;99.90
57026;DHT22;43961;52.940;6.834;2023-08-06T10:02:44;21.30;99.90
57026;DHT22;43961;52.940;6.834;2023-08-06T10:05:10;21.40;99.90
57026;DHT22;43961;52.940;6.834;2023-08-06T10:10:06;21.60;99.90
57026;DHT22;43961;52.940;6.834;2023-08-06T10:12:35;22.00;99.90
57026;DHT22;43961;52.940;6.834;2023-08-06T10:15:05;21.60;99.90
57026;DHT22;43961;52.940;6.834;2023-08-06T10:17:33;22.50;99.90
57026;DHT22;43961;52.940;6.834;2023-08-06T10:19:59;21.20;99.90
57026;DHT22;43961;52.940;6.834;2023-08-06T10:22:25;20.90;99.90
57026;DHT22;43961;52.940;6.834;2023-08-06T10:27:53;21.20;99.90
57026;DHT22;43961;52.940;6.834;2023-08-06T10:30:23;21.50;99.90
57026;DHT22;43961;52.940;6.834;2023-08-06T10:33:07;21.70;99.90
57026;DHT22;43961;52.940;6.834;2023-08-06T10:45:57;21.20;99.90
57026;DHT22;43961;52.940;6.834;2023-08-06T10:48:44;21.00;99.90
57026;DHT22;43961;52.940;6.834;2023-08-06T10:51:12;20.70;99.90
57026;DHT22;43961;52.940;6.834;2023-08-06T11:05:05;21.10;99.90
57026;DHT22;43961;52.940;6.834;2023-08-06T11:10:05;21.10;99.90
57026;DHT22;43961;52.940;6.834;2023-08-06T12:03:29;20.70;99.90
57026;DHT22;43961;52.940;6.834;2023-08-06T12:08:26;20.70;99.90
57026;DHT22;43961;52.940;6.834;2023-08-06T12:15:45;20.60;99.90
57026;DHT22;43961;52.940;6.834;2023-08-06T12:18:11;20.70;99.90
57026;DHT22;43961;52.940;6.834;2023-08-06T12:20:37;20.80;99.90
57026;DHT22;43961;52.940;6.834;2023-08-06T12:23:04;21.50;99.90
57026;DHT22;43961;52.940;6.834;2023-08-06T12:25:30;21.20;99.90
57026;DHT22;43961;52.940;6.834;2023-08-06T12:27:55;21.50;99.90
57026;DHT22;43961;52.940;6.834;2023-08-06T12:32:47;21.20;99.90
57026;DHT22;43961;52.940;6.834;2023-08-06T12:35:13;21.60;99.90
57026;DHT22;43961;52.940;6.834;2023-08-06T12:40:06;21.10;99.90
57026;DHT22;43961;52.940;6.834;2023-08-06T12:47:24;21.50;99.90
57026;DHT22;43961;52.940;6.834;2023-08-06T12:49:50;21.10;99.90
57026;DHT22;43961;52.940;6.834;2023-08-06T12:52:15;21.60;99.90
57026;DHT22;43961;52.940;6.834;2023-08-06T12:57:08;21.70;99.90
57026;DHT22;43961;52.940;6.834;2023-08-06T13:04:28;21.40;99.90
57026;DHT22;43961;52.940;6.834;2023-08-06T13:06:54;21.90;99.90
57026;DHT22;43961;52.940;6.834;2023-08-06T13:09:20;21.70;99.90
57026;DHT22;43961;52.940;6.834;2023-08-06T13:11:45;21.90;99.90
57026;DHT22;43961;52.940;6.834;2023-08-06T13:22:55;21.70;99.90
57026;DHT22;43961;52.940;6.834;2023-08-06T13:25:20;21.50;99.90
57026;DHT22;43961;52.940;6.834;2023-08-06T13:38:53;22.30;99.90
57026;DHT22;43961;52.940;6.834;2023-08-06T13:43:45;22.30;99.90
57026;DHT22;43961;52.940;6.834;2023-08-06T13:46:11;22.50;99.90
57026;DHT22;43961;52.940;6.834;2023-08-06T13:48:44;23.00;99.90
57026;DHT22;43961;52.940;6.834;2023-08-06T13:51:13;22.80;99.90
57026;DHT22;43961;52.940;6.834;2023-08-06T13:53:40;23.10;99.90
57026;DHT22;43961;52.940;6.834;2023-08-06T13:56:06;23.20;99.90
57026;DHT22;43961;52.940;6.834;2023-08-06T13:58:33;23.30;99.90
57026;DHT22;43961;52.940;6.834;2023-08-06T14:06:57;22.60;99.90
57026;DHT22;43961;52.940;6.834;2023-08-06T14:09:22;23.10;99.90
57026;DHT22;43961;52.940;6.834;2023-08-06T14:12:16;22.80;99.90
57026;DHT22;43961;52.940;6.834;2023-08-06T14:14:42;22.90;99.90
57026;DHT22;43961;52.940;6.834;2023-08-06T14:17:07;22.60;99.90
57026;DHT22;43961;52.940;6.834;2023-08-06T14:19:33;22.60;99.90
57026;DHT22;43961;52.940;6.834;2023-08-06T14:26:51;22.80;99.90
57026;DHT22;43961;52.940;6.834;2023-08-06T14:29:17;22.40;99.90
57026;DHT22;43961;52.940;6.834;2023-08-06T14:31:42;22.40;99.90
57026;DHT22;43961;52.940;6.834;2023-08-06T14:34:09;22.50;99.90
57026;DHT22;43961;52.940;6.834;2023-08-06T14:36:35;22.30;99.90
57026;DHT22;43961;52.940;6.834;2023-08-06T14:41:27;22.40;99.90
57026;DHT22;43961;52.940;6.834;2023-08-06T14:43:52;22.40;99.90
57026;DHT22;43961;52.940;6.834;2023-08-06T14:48:45;22.30;99.90
57026;DHT22;43961;52.940;6.834;2023-08-06T14:56:03;22.10;99.90
57026;DHT22;43961;52.940;6.834;2023-08-06T14:58:29;22.60;99.90
57026;DHT22;43961;52.940;6.834;2023-08-06T15:05:49;22.10;99.90
57026;DHT22;43961;52.940;6.834;2023-08-06T15:40:53;21.60;99.90
57026;DHT22;43961;52.940;6.834;2023-08-06T15:57:59;21.70;99.90
57026;DHT22;43961;52.940;6.834;2023-08-06T16:00:24;21.70;99.90
57026;DHT22;43961;52.940;6.834;2023-08-06T16:02:50;21.60;99.90
57026;DHT22;43961;52.940;6.834;2023-08-06T16:05:16;21.70;99.90
57026;DHT22;43961;52.940;6.834;2023-08-06T16:12:34;21.60;99.90
57026;DHT22;43961;52.940;6.834;2023-08-06T16:15:00;22.20;99.90
57026;DHT22;43961;52.940;6.834;2023-08-06T16:22:19;22.50;99.90
57026;DHT22;43961;52.940;6.834;2023-08-06T16:29:37;22.10;99.90
57026;DHT22;43961;52.940;6.834;2023-08-06T16:34:29;22.00;99.90
57026;DHT22;43961;52.940;6.834;2023-08-06T16:36:57;21.80;99.90
57026;DHT22;43961;52.940;6.834;2023-08-06T16:39:23;22.00;99.90
57026;DHT22;43961;52.940;6.834;2023-08-06T16:41:51;21.60;99.90
57026;DHT22;43961;52.940;6.834;2023-08-06T16:46:43;21.60;99.90
57026;DHT22;43961;52.940;6.834;2023-08-06T16:51:34;21.60;99.90
57026;DHT22;43961;52.940;6.834;2023-08-06T16:56:27;21.60;99.90
57026;DHT22;43961;52.940;6.834;2023-08-06T16:58:53;21.40;99.90
57026;DHT22;43961;52.940;6.834;2023-08-06T17:03:44;21.60;99.90
57026;DHT22;43961;52.940;6.834;2023-08-06T17:18:24;21.10;99.90
57026;DHT22;43961;52.940;6.834;2023-08-06T17:20:50;21.00;99.90
57026;DHT22;43961;52.940;6.834;2023-08-06T17:28:09;20.70;99.90
57026;DHT22;43961;52.940;6.834;2023-08-06T17:33:04;21.00;99.90
57026;DHT22;43961;52.940;6.834;2023-08-06T17:37:57;20.70;99.90
57026;DHT22;43961;52.940;6.834;2023-08-06T17:40:28;20.70;99.90
57026;DHT22;43961;52.940;6.834;2023-08-06T18:03:02;20.60;99.90
57026;DHT22;43961;52.940;6.834;2023-08-06T18:05:28;20.40;99.90
57026;DHT22;43961;52.940;6.834;2023-08-06T18:10:22;20.60;99.90
57026;DHT22;43961;52.940;6.834;2023-08-06T18:17:40;19.80;99.90
57026;DHT22;43961;52.940;6.834;2023-08-06T18:20:07;20.20;99.90
57026;DHT22;43961;52.940;6.834;2023-08-06T18:22:33;19.70;99.90
57026;DHT22;43961;52.940;6.834;2023-08-06T18:24:59;19.80;99.90
57026;DHT22;43961;52.940;6.834;2023-08-06T18:27:27;20.00;99.90
57026;DHT22;43961;52.940;6.834;2023-08-06T18:29:53;19.70;99.90
57026;DHT22;43961;52.940;6.834;2023-08-06T18:32:20;19.60;99.90
57026;DHT22;43961;52.940;6.834;2023-08-06T18:37:13;19.40;99.90
57026;DHT22;43961;52.940;6.834;2023-08-06T18:39:38;19.40;99.90
57026;DHT22;43961;52.940;6.834;2023-08-06T18:42:06;19.20;99.90
57026;DHT22;43961;52.940;6.834;2023-08-06T18:44:32;19.10;99.90
57026;DHT22;43961;52.940;6.834;2023-08-06T18:46:57;19.10;99.90
57026;DHT22;43961;52.940;6.834;2023-08-06T18:49:23;19.40;99.90
57026;DHT22;43961;52.940;6.834;2023-08-06T18:51:49;18.80;99.90
57026;DHT22;43961;52.940;6.834;2023-08-06T18:54:14;19.30;99.90
57026;DHT22;43961;52.940;6.834;2023-08-06T18:56:40;18.80;99.90
57026;DHT22;43961;52.940;6.834;2023-08-06T18:59:06;19.00;99.90
57026;DHT22;43961;52.940;6.834;2023-08-06T19:01:32;18.80;99.90
57026;DHT22;43961;52.940;6.834;2023-08-06T19:03:58;19.60;99.90
57026;DHT22;43961;52.940;6.834;2023-08-06T19:06:23;18.70;99.90
57026;DHT22;43961;52.940;6.834;2023-08-06T19:08:53;18.30;99.90
57026;DHT22;43961;52.940;6.834;2023-08-06T19:11:19;18.20;99.90
57026;DHT22;43961;52.940;6.834;2023-08-06T19:13:44;18.50;99.90
57026;DHT22;43961;52.940;6.834;2023-08-06T19:16:10;18.10;99.90
57026;DHT22;43961;52.940;6.834;2023-08-06T19:18:36;17.90;99.90
57026;DHT22;43961;52.940;6.834;2023-08-06T19:21:02;18.00;99.90
57026;DHT22;43961;52.940;6.834;2023-08-06T19:23:27;17.90;99.90
57026;DHT22;43961;52.940;6.834;2023-08-06T19:25:53;18.00;99.90
57026;DHT22;43961;52.940;6.834;2023-08-06T19:28:19;18.20;99.90
57026;DHT22;43961;52.940;6.834;2023-08-06T19:30:47;17.90;99.90
57026;DHT22;43961;52.940;6.834;2023-08-06T19:33:13;17.80;99.90
57026;DHT22;43961;52.940;6.834;2023-08-06T19:35:54;18.20;99.90
57026;DHT22;43961;52.940;6.834;2023-08-06T19:38:41;17.70;99.90
57026;DHT22;43961;52.940;6.834;2023-08-06T19:41:08;18.20;99.90
57026;DHT22;43961;52.940;6.834;2023-08-06T19:46:35;17.30;99.90
57026;DHT22;43961;52.940;6.834;2023-08-06T19:49:01;17.30;99.90
57026;DHT22;43961;52.940;6.834;2023-08-06T19:51:27;17.30;99.90
57026;DHT22;43961;52.940;6.834;2023-08-06T19:53:54;17.60;99.90
57026;DHT22;43961;52.940;6.834;2023-08-06T20:01:15;17.50;99.90
57026;DHT22;43961;52.940;6.834;2023-08-06T20:06:09;17.10;99.90
57026;DHT22;43961;52.940;6.834;2023-08-06T20:08:35;17.20;99.90
57026;DHT22;43961;52.940;6.834;2023-08-06T20:13:29;17.20;99.90
57026;DHT22;43961;52.940;6.834;2023-08-06T20:15:54;16.90;99.90
57026;DHT22;43961;52.940;6.834;2023-08-06T20:20:52;16.90;99.90
57026;DHT22;43961;52.940;6.834;2023-08-06T20:23:18;17.10;99.90
57026;DHT22;43961;52.940;6.834;2023-08-06T20:25:44;16.90;99.90
57026;DHT22;43961;52.940;6.834;2023-08-06T20:28:10;17.10;99.90
57026;DHT22;43961;52.940;6.834;2023-08-06T20:30:35;16.70;99.90
57026;DHT22;43961;52.940;6.834;2023-08-06T20:33:01;16.60;99.90
57026;DHT22;43961;52.940;6.834;2023-08-06T20:35:27;16.90;99.90
57026;DHT22;43961;52.940;6.834;2023-08-06T20:37:52;16.50;99.90
57026;DHT22;43961;52.940;6.834;2023-08-06T20:40:18;16.80;99.90
57026;DHT22;43961;52.940;6.834;2023-08-06T20:42:44;16.50;99.90
57026;DHT22;43961;52.940;6.834;2023-08-06T20:45:10;16.40;99.90
57026;DHT22;43961;52.940;6.834;2023-08-06T20:47:36;16.70;99.90
57026;DHT22;43961;52.940;6.834;2023-08-06T20:50:02;16.60;99.90
57026;DHT22;43961;52.940;6.834;2023-08-06T20:52:28;16.30;99.90
57026;DHT22;43961;52.940;6.834;2023-08-06T20:57:19;16.40;99.90
57026;DHT22;43961;52.940;6.834;2023-08-06T20:59:45;16.10;99.90
57026;DHT22;43961;52.940;6.834;2023-08-06T21:02:11;16.20;99.90
57026;DHT22;43961;52.940;6.834;2023-08-06T21:04:36;16.20;99.90
57026;DHT22;43961;52.940;6.834;2023-08-06T21:07:02;16.20;99.90
57026;DHT22;43961;52.940;6.834;2023-08-06T21:11:54;16.00;99.90
57026;DHT22;43961;52.940;6.834;2023-08-06T21:14:20;16.00;99.90
57026;DHT22;43961;52.940;6.834;2023-08-06T21:16:45;15.70;99.90
57026;DHT22;43961;52.940;6.834;2023-08-06T21:19:12;15.80;99.90
57026;DHT22;43961;52.940;6.834;2023-08-06T21:24:06;15.80;99.90
57026;DHT22;43961;52.940;6.834;2023-08-06T21:26:31;15.60;99.90
57026;DHT22;43961;52.940;6.834;2023-08-06T21:31:23;15.90;99.90
57026;DHT22;43961;52.940;6.834;2023-08-06T21:33:49;15.60;99.90
57026;DHT22;43961;52.940;6.834;2023-08-06T21:36:14;15.70;99.90
57026;DHT22;43961;52.940;6.834;2023-08-06T21:41:10;15.50;99.90
57026;DHT22;43961;52.940;6.834;2023-08-06T21:46:04;15.20;99.90
57026;DHT22;43961;52.940;6.834;2023-08-06T21:48:32;15.40;99.90
57026;DHT22;43961;52.940;6.834;2023-08-06T21:53:29;15.20;99.90
57026;DHT22;43961;52.940;6.834;2023-08-06T21:55:59;15.00;99.90
57026;DHT22;43961;52.940;6.834;2023-08-06T21:58:33;15.20;99.90
57026;DHT22;43961;52.940;6.834;2023-08-06T22:00:59;15.20;99.90
57026;DHT22;43961;52.940;6.834;2023-08-06T22:03:24;14.90;99.90
57026;DHT22;43961;52.940;6.834;2023-08-06T22:05:50;15.00;99.90
57026;DHT22;43961;52.940;6.834;2023-08-06T22:08:16;15.00;99.90
57026;DHT22;43961;52.940;6.834;2023-08-06T22:10:43;15.00;99.90
57026;DHT22;43961;52.940;6.834;2023-08-06T22:13:10;14.80;99.90
57026;DHT22;43961;52.940;6.834;2023-08-06T22:15:36;15.00;99.90
57026;DHT22;43961;52.940;6.834;2023-08-06T22:18:02;14.90;99.90
57026;DHT22;43961;52.940;6.834;2023-08-06T22:20:28;14.70;99.90
57026;DHT22;43961;52.940;6.834;2023-08-06T22:22:53;14.90;99.90
57026;DHT22;43961;52.940;6.834;2023-08-06T22:25:19;14.50;99.90
57026;DHT22;43961;52.940;6.834;2023-08-06T22:27:45;14.50;99.90
57026;DHT22;43961;52.940;6.834;2023-08-06T22:30:11;14.20;99.90
57026;DHT22;43961;52.940;6.834;2023-08-06T22:32:37;14.40;99.90
57026;DHT22;43961;52.940;6.834;2023-08-06T22:35:03;14.50;99.90
57026;DHT22;43961;52.940;6.834;2023-08-06T22:37:29;14.50;99.90
57026;DHT22;43961;52.940;6.834;2023-08-06T22:43:36;14.70;99.90
57026;DHT22;43961;52.940;6.834;2023-08-06T22:46:02;14.70;99.90
57026;DHT22;43961;52.940;6.834;2023-08-06T22:48:28;14.30;99.90
57026;DHT22;43961;52.940;6.834;2023-08-06T22:50:54;14.50;99.90
57026;DHT22;43961;52.940;6.834;2023-08-06T22:53:19;14.60;99.90
57026;DHT22;43961;52.940;6.834;2023-08-06T22:55:45;14.60;99.90
57026;DHT22;43961;52.940;6.834;2023-08-06T22:58:12;14.50;99.90
57026;DHT22;43961;52.940;6.834;2023-08-06T23:00:38;14.20;99.90
57026;DHT22;43961;52.940;6.834;2023-08-06T23:03:03;14.50;99.90
57026;DHT22;43961;52.940;6.834;2023-08-06T23:05:29;14.50;99.90
57026;DHT22;43961;52.940;6.834;2023-08-06T23:07:55;14.40;99.90
57026;DHT22;43961;52.940;6.834;2023-08-06T23:10:20;14.20;99.90
57026;DHT22;43961;52.940;6.834;2023-08-06T23:12:46;14.30;99.90
57026;DHT22;43961;52.940;6.834;2023-08-06T23:15:11;14.30;99.90
57026;DHT22;43961;52.940;6.834;2023-08-06T23:17:37;14.10;99.90
57026;DHT22;43961;52.940;6.834;2023-08-06T23:20:06;14.40;99.90
57026;DHT22;43961;52.940;6.834;2023-08-06T23:22:33;14.10;99.90
57026;DHT22;43961;52.940;6.834;2023-08-06T23:29:51;14.20;99.90
57026;DHT22;43961;52.940;6.834;2023-08-06T23:32:16;14.40;99.90
57026;DHT22;43961;52.940;6.834;2023-08-06T23:34:42;14.40;99.90
57026;DHT22;43961;52.940;6.834;2023-08-06T23:37:08;14.20;99.90
57026;DHT22;43961;52.940;6.834;2023-08-06T23:42:00;14.40;99.90
57026;DHT22;43961;52.940;6.834;2023-08-06T23:44:25;14.40;99.90
57026;DHT22;43961;52.940;6.834;2023-08-06T23:46:51;14.20;99.90
57026;DHT22;43961;52.940;6.834;2023-08-06T23:49:16;14.20;99.90
57026;DHT22;43961;52.940;6.834;2023-08-06T23:54:12;14.40;99.90
57026;DHT22;43961;52.940;6.834;2023-08-06T23:59:04;14.40;99.90
